Paganella, Italy
Alba: 5:16 AM UTC1
Tramonto: 7:21 PM UTC1
 Lat: 46.13N, Lon: 11.02E
ICAO Used: LIVP
Condizioni Meteo Attuali Aggiornate: 17.08.2018 alle 06:55 UTC
Parz Nuvoloso
Parz Nuvoloso
Parz Nuvoloso
Temp: 11°C
Umidita': 76%
Direz/Vel. Vento: variabile 2 / KT raffiche
Pressione: 1024 hPa
Punto di rugiada: 7°C
Temperatura percepita: 10°C
Visibilitą: >10 KM (ottima)
Temperatura percepita in
presenza di vento (Wind Chill)
:
N/D
T. max (ultime 24 ore): 10°C
T. min (ultime 24 ore): 9°C


METAR ORIGINALE
LIVP 170655Z VRB02KT 9999 2000E FEW/// 11/07 Q1024 RMK BKN BKN060 MON LIB VAL E CLD SCT VIS MIN 2000E



[ Indietro ]


Elaborazione dati by Datameteo.com - Lrc srl Copyright ©, All rights reserved.